sensor_id;sensor_type;location;lat;lon;timestamp;temperature;humidity
70928;SHT31;58587;53.034;18.576;2023-08-24T00:00:29;19.22;70.19
70928;SHT31;58587;53.034;18.576;2023-08-24T00:02:55;19.18;70.58
70928;SHT31;58587;53.034;18.576;2023-08-24T00:05:20;19.16;70.89
70928;SHT31;58587;53.034;18.576;2023-08-24T00:07:46;19.14;71.03
70928;SHT31;58587;53.034;18.576;2023-08-24T00:10:13;19.07;71.39
70928;SHT31;58587;53.034;18.576;2023-08-24T00:12:38;19.02;70.26
70928;SHT31;58587;53.034;18.576;2023-08-24T00:15:07;19.00;71.00
70928;SHT31;58587;53.034;18.576;2023-08-24T00:17:34;18.94;70.65
70928;SHT31;58587;53.034;18.576;2023-08-24T00:19:59;18.95;71.43
70928;SHT31;58587;53.034;18.576;2023-08-24T00:22:24;18.87;71.44
70928;SHT31;58587;53.034;18.576;2023-08-24T00:24:50;18.85;71.73
70928;SHT31;58587;53.034;18.576;2023-08-24T00:27:15;18.84;71.04
70928;SHT31;58587;53.034;18.576;2023-08-24T00:29:40;18.80;71.57
70928;SHT31;58587;53.034;18.576;2023-08-24T00:32:05;18.75;71.32
70928;SHT31;58587;53.034;18.576;2023-08-24T00:34:31;18.74;71.30
70928;SHT31;58587;53.034;18.576;2023-08-24T00:36:57;18.72;71.03
70928;SHT31;58587;53.034;18.576;2023-08-24T00:39:22;18.71;71.31
70928;SHT31;58587;53.034;18.576;2023-08-24T00:41:47;18.68;71.67
70928;SHT31;58587;53.034;18.576;2023-08-24T00:44:13;18.60;72.12
70928;SHT31;58587;53.034;18.576;2023-08-24T00:46:38;18.57;71.68
70928;SHT31;58587;53.034;18.576;2023-08-24T00:49:03;18.56;71.65
70928;SHT31;58587;53.034;18.576;2023-08-24T00:51:29;18.56;71.41
70928;SHT31;58587;53.034;18.576;2023-08-24T00:53:54;18.57;71.72
70928;SHT31;58587;53.034;18.576;2023-08-24T00:56:19;18.58;71.39
70928;SHT31;58587;53.034;18.576;2023-08-24T00:58:49;18.63;71.60
70928;SHT31;58587;53.034;18.576;2023-08-24T01:01:16;18.64;71.56
70928;SHT31;58587;53.034;18.576;2023-08-24T01:03:42;18.60;71.60
70928;SHT31;58587;53.034;18.576;2023-08-24T01:06:07;18.61;72.29
70928;SHT31;58587;53.034;18.576;2023-08-24T01:08:33;18.61;72.00
70928;SHT31;58587;53.034;18.576;2023-08-24T01:13:50;18.56;72.16
70928;SHT31;58587;53.034;18.576;2023-08-24T01:16:20;18.58;72.39
70928;SHT31;58587;53.034;18.576;2023-08-24T01:18:47;18.57;72.56
70928;SHT31;58587;53.034;18.576;2023-08-24T01:21:14;18.56;72.48
70928;SHT31;58587;53.034;18.576;2023-08-24T01:23:49;18.56;72.25
70928;SHT31;58587;53.034;18.576;2023-08-24T01:26:20;18.56;72.36
70928;SHT31;58587;53.034;18.576;2023-08-24T01:28:46;18.56;71.88
70928;SHT31;58587;53.034;18.576;2023-08-24T01:31:15;18.57;72.73
70928;SHT31;58587;53.034;18.576;2023-08-24T01:33:42;18.58;72.54
70928;SHT31;58587;53.034;18.576;2023-08-24T01:36:12;18.60;72.25
70928;SHT31;58587;53.034;18.576;2023-08-24T01:38:39;18.63;72.78
70928;SHT31;58587;53.034;18.576;2023-08-24T01:41:24;18.65;72.39
70928;SHT31;58587;53.034;18.576;2023-08-24T01:43:53;18.68;72.45
70928;SHT31;58587;53.034;18.576;2023-08-24T01:46:21;18.70;72.35
70928;SHT31;58587;53.034;18.576;2023-08-24T01:48:47;18.71;72.81
70928;SHT31;58587;53.034;18.576;2023-08-24T01:51:13;18.68;73.16
70928;SHT31;58587;53.034;18.576;2023-08-24T01:53:41;18.71;73.20
70928;SHT31;58587;53.034;18.576;2023-08-24T01:56:11;18.70;73.63
70928;SHT31;58587;53.034;18.576;2023-08-24T01:58:36;18.72;72.94
70928;SHT31;58587;53.034;18.576;2023-08-24T02:01:01;18.74;73.35
70928;SHT31;58587;53.034;18.576;2023-08-24T02:03:27;18.75;73.40
70928;SHT31;58587;53.034;18.576;2023-08-24T02:05:52;18.74;73.34
70928;SHT31;58587;53.034;18.576;2023-08-24T02:08:17;18.72;73.53
70928;SHT31;58587;53.034;18.576;2023-08-24T02:10:43;18.70;73.82
70928;SHT31;58587;53.034;18.576;2023-08-24T02:13:08;18.68;73.99
70928;SHT31;58587;53.034;18.576;2023-08-24T02:15:33;18.64;73.65
70928;SHT31;58587;53.034;18.576;2023-08-24T02:17:59;18.61;74.31
70928;SHT31;58587;53.034;18.576;2023-08-24T02:20:24;18.56;74.26
70928;SHT31;58587;53.034;18.576;2023-08-24T02:22:49;18.53;74.70
70928;SHT31;58587;53.034;18.576;2023-08-24T02:25:15;18.46;74.69
70928;SHT31;58587;53.034;18.576;2023-08-24T02:27:40;18.41;74.63
70928;SHT31;58587;53.034;18.576;2023-08-24T02:30:06;18.36;75.05
70928;SHT31;58587;53.034;18.576;2023-08-24T02:32:31;18.29;75.28
70928;SHT31;58587;53.034;18.576;2023-08-24T02:34:57;18.26;75.50
70928;SHT31;58587;53.034;18.576;2023-08-24T02:37:22;18.17;75.47
70928;SHT31;58587;53.034;18.576;2023-08-24T02:39:47;18.10;75.42
70928;SHT31;58587;53.034;18.576;2023-08-24T02:42:13;18.00;75.61
70928;SHT31;58587;53.034;18.576;2023-08-24T02:44:38;17.96;75.89
70928;SHT31;58587;53.034;18.576;2023-08-24T02:47:04;17.92;75.85
70928;SHT31;58587;53.034;18.576;2023-08-24T02:49:29;17.83;75.97
70928;SHT31;58587;53.034;18.576;2023-08-24T02:51:55;17.79;76.14
70928;SHT31;58587;53.034;18.576;2023-08-24T02:54:20;17.75;76.21
70928;SHT31;58587;53.034;18.576;2023-08-24T02:56:45;17.72;76.38
70928;SHT31;58587;53.034;18.576;2023-08-24T02:59:11;17.69;76.86
70928;SHT31;58587;53.034;18.576;2023-08-24T03:01:36;17.68;76.81
70928;SHT31;58587;53.034;18.576;2023-08-24T03:04:03;17.65;77.16
70928;SHT31;58587;53.034;18.576;2023-08-24T03:06:29;17.62;77.42
70928;SHT31;58587;53.034;18.576;2023-08-24T03:08:54;17.64;77.51
70928;SHT31;58587;53.034;18.576;2023-08-24T03:11:20;17.61;77.54
70928;SHT31;58587;53.034;18.576;2023-08-24T03:13:45;17.61;77.68
70928;SHT31;58587;53.034;18.576;2023-08-24T03:16:10;17.59;77.83
70928;SHT31;58587;53.034;18.576;2023-08-24T03:18:36;17.59;77.70
70928;SHT31;58587;53.034;18.576;2023-08-24T03:21:01;17.64;77.95
70928;SHT31;58587;53.034;18.576;2023-08-24T03:23:27;17.62;77.93
70928;SHT31;58587;53.034;18.576;2023-08-24T03:25:52;17.64;78.16
70928;SHT31;58587;53.034;18.576;2023-08-24T03:28:18;17.59;78.26
70928;SHT31;58587;53.034;18.576;2023-08-24T03:30:48;17.58;78.47
70928;SHT31;58587;53.034;18.576;2023-08-24T03:33:14;17.55;78.23
70928;SHT31;58587;53.034;18.576;2023-08-24T03:35:40;17.54;78.35
70928;SHT31;58587;53.034;18.576;2023-08-24T03:38:06;17.51;78.62
70928;SHT31;58587;53.034;18.576;2023-08-24T03:40:31;17.49;78.53
70928;SHT31;58587;53.034;18.576;2023-08-24T03:42:56;17.49;78.90
70928;SHT31;58587;53.034;18.576;2023-08-24T03:45:22;17.48;78.94
70928;SHT31;58587;53.034;18.576;2023-08-24T03:47:48;17.45;79.11
70928;SHT31;58587;53.034;18.576;2023-08-24T03:50:14;17.45;79.33
70928;SHT31;58587;53.034;18.576;2023-08-24T03:52:39;17.46;79.36
70928;SHT31;58587;53.034;18.576;2023-08-24T03:55:06;17.46;79.34
70928;SHT31;58587;53.034;18.576;2023-08-24T03:57:32;17.48;79.54
70928;SHT31;58587;53.034;18.576;2023-08-24T03:59:57;17.54;79.49
70928;SHT31;58587;53.034;18.576;2023-08-24T04:02:23;17.54;79.55
70928;SHT31;58587;53.034;18.576;2023-08-24T04:04:48;17.52;79.58
70928;SHT31;58587;53.034;18.576;2023-08-24T04:07:13;17.52;79.95
70928;SHT31;58587;53.034;18.576;2023-08-24T04:09:39;17.52;79.97
70928;SHT31;58587;53.034;18.576;2023-08-24T04:12:05;17.55;79.71
70928;SHT31;58587;53.034;18.576;2023-08-24T04:14:31;17.59;80.04
70928;SHT31;58587;53.034;18.576;2023-08-24T04:16:56;17.59;79.84
70928;SHT31;58587;53.034;18.576;2023-08-24T04:19:21;17.59;80.13
70928;SHT31;58587;53.034;18.576;2023-08-24T04:21:47;17.62;79.68
70928;SHT31;58587;53.034;18.576;2023-08-24T04:24:12;17.64;80.26
70928;SHT31;58587;53.034;18.576;2023-08-24T04:26:37;17.61;79.63
70928;SHT31;58587;53.034;18.576;2023-08-24T04:29:03;17.64;79.96
70928;SHT31;58587;53.034;18.576;2023-08-24T04:31:28;17.66;79.78
70928;SHT31;58587;53.034;18.576;2023-08-24T04:33:54;17.71;79.28
70928;SHT31;58587;53.034;18.576;2023-08-24T04:36:19;17.74;79.87
70928;SHT31;58587;53.034;18.576;2023-08-24T04:38:44;17.78;79.72
70928;SHT31;58587;53.034;18.576;2023-08-24T04:41:10;17.78;79.56
70928;SHT31;58587;53.034;18.576;2023-08-24T04:43:37;17.81;79.56
70928;SHT31;58587;53.034;18.576;2023-08-24T04:46:02;17.86;79.44
70928;SHT31;58587;53.034;18.576;2023-08-24T04:48:28;17.89;79.45
70928;SHT31;58587;53.034;18.576;2023-08-24T04:50:58;17.92;79.61
70928;SHT31;58587;53.034;18.576;2023-08-24T04:53:23;18.00;79.16
70928;SHT31;58587;53.034;18.576;2023-08-24T04:55:48;18.03;79.02
70928;SHT31;58587;53.034;18.576;2023-08-24T04:58:14;18.07;79.11
70928;SHT31;58587;53.034;18.576;2023-08-24T05:00:39;18.14;79.01
70928;SHT31;58587;53.034;18.576;2023-08-24T05:03:06;18.17;78.85
70928;SHT31;58587;53.034;18.576;2023-08-24T05:05:33;18.22;78.80
70928;SHT31;58587;53.034;18.576;2023-08-24T05:07:59;18.26;78.68
70928;SHT31;58587;53.034;18.576;2023-08-24T05:10:25;18.26;78.86
70928;SHT31;58587;53.034;18.576;2023-08-24T05:12:50;18.26;79.08
70928;SHT31;58587;53.034;18.576;2023-08-24T05:15:16;18.27;79.31
70928;SHT31;58587;53.034;18.576;2023-08-24T05:17:41;18.27;79.04
70928;SHT31;58587;53.034;18.576;2023-08-24T05:20:07;18.26;79.39
70928;SHT31;58587;53.034;18.576;2023-08-24T05:22:35;18.33;79.10
70928;SHT31;58587;53.034;18.576;2023-08-24T05:25:00;18.38;79.03
70928;SHT31;58587;53.034;18.576;2023-08-24T05:27:25;18.38;79.15
70928;SHT31;58587;53.034;18.576;2023-08-24T05:29:51;18.47;79.04
70928;SHT31;58587;53.034;18.576;2023-08-24T05:32:16;18.44;79.00
70928;SHT31;58587;53.034;18.576;2023-08-24T05:34:41;18.50;79.17
70928;SHT31;58587;53.034;18.576;2023-08-24T05:37:07;18.57;79.09
70928;SHT31;58587;53.034;18.576;2023-08-24T05:39:32;18.61;78.77
70928;SHT31;58587;53.034;18.576;2023-08-24T05:41:57;18.64;78.91
70928;SHT31;58587;53.034;18.576;2023-08-24T05:44:22;18.71;78.76
70928;SHT31;58587;53.034;18.576;2023-08-24T05:46:48;18.72;78.41
70928;SHT31;58587;53.034;18.576;2023-08-24T05:49:13;18.81;78.19
70928;SHT31;58587;53.034;18.576;2023-08-24T05:51:39;18.90;78.31
70928;SHT31;58587;53.034;18.576;2023-08-24T05:54:04;18.98;77.79
70928;SHT31;58587;53.034;18.576;2023-08-24T05:56:30;19.10;77.30
70928;SHT31;58587;53.034;18.576;2023-08-24T05:58:57;19.15;77.25
70928;SHT31;58587;53.034;18.576;2023-08-24T06:01:23;19.26;76.44
70928;SHT31;58587;53.034;18.576;2023-08-24T06:03:49;19.25;76.13
70928;SHT31;58587;53.034;18.576;2023-08-24T06:06:15;19.35;76.33
70928;SHT31;58587;53.034;18.576;2023-08-24T06:08:40;19.41;76.09
70928;SHT31;58587;53.034;18.576;2023-08-24T06:11:06;19.52;76.13
70928;SHT31;58587;53.034;18.576;2023-08-24T06:13:31;19.46;75.19
70928;SHT31;58587;53.034;18.576;2023-08-24T06:15:57;19.58;75.39
70928;SHT31;58587;53.034;18.576;2023-08-24T06:18:22;19.65;75.28
70928;SHT31;58587;53.034;18.576;2023-08-24T06:20:47;19.72;75.02
70928;SHT31;58587;53.034;18.576;2023-08-24T06:23:16;19.72;74.08
70928;SHT31;58587;53.034;18.576;2023-08-24T06:25:42;19.77;73.57
70928;SHT31;58587;53.034;18.576;2023-08-24T06:28:08;19.80;73.94
70928;SHT31;58587;53.034;18.576;2023-08-24T06:30:38;19.89;74.03
70928;SHT31;58587;53.034;18.576;2023-08-24T06:33:04;19.92;73.47
70928;SHT31;58587;53.034;18.576;2023-08-24T06:35:30;19.96;73.98
70928;SHT31;58587;53.034;18.576;2023-08-24T06:37:55;20.07;73.96
70928;SHT31;58587;53.034;18.576;2023-08-24T06:40:20;20.14;72.78
70928;SHT31;58587;53.034;18.576;2023-08-24T06:42:46;20.18;72.21
70928;SHT31;58587;53.034;18.576;2023-08-24T06:45:11;20.24;71.81
70928;SHT31;58587;53.034;18.576;2023-08-24T06:47:37;20.30;71.54
70928;SHT31;58587;53.034;18.576;2023-08-24T06:50:02;20.36;71.36
70928;SHT31;58587;53.034;18.576;2023-08-24T06:52:28;20.41;70.60
70928;SHT31;58587;53.034;18.576;2023-08-24T06:54:53;20.47;70.44
70928;SHT31;58587;53.034;18.576;2023-08-24T06:57:21;20.49;70.50
70928;SHT31;58587;53.034;18.576;2023-08-24T06:59:47;20.58;70.17
70928;SHT31;58587;53.034;18.576;2023-08-24T07:02:12;20.67;69.59
70928;SHT31;58587;53.034;18.576;2023-08-24T07:04:37;20.77;69.58
70928;SHT31;58587;53.034;18.576;2023-08-24T07:07:05;20.78;68.46
70928;SHT31;58587;53.034;18.576;2023-08-24T07:09:30;20.87;68.61
70928;SHT31;58587;53.034;18.576;2023-08-24T07:11:56;20.96;69.29
70928;SHT31;58587;53.034;18.576;2023-08-24T07:14:21;21.02;69.34
70928;SHT31;58587;53.034;18.576;2023-08-24T07:16:46;21.03;68.53
70928;SHT31;58587;53.034;18.576;2023-08-24T07:19:12;21.09;68.42
70928;SHT31;58587;53.034;18.576;2023-08-24T07:21:37;21.16;66.25
70928;SHT31;58587;53.034;18.576;2023-08-24T07:24:03;21.15;64.96
70928;SHT31;58587;53.034;18.576;2023-08-24T07:26:28;21.26;65.29
70928;SHT31;58587;53.034;18.576;2023-08-24T07:28:55;21.28;64.29
70928;SHT31;58587;53.034;18.576;2023-08-24T07:31:21;21.25;63.27
70928;SHT31;58587;53.034;18.576;2023-08-24T07:33:46;21.33;64.17
70928;SHT31;58587;53.034;18.576;2023-08-24T07:36:11;21.49;64.68
70928;SHT31;58587;53.034;18.576;2023-08-24T07:38:37;21.59;64.75
70928;SHT31;58587;53.034;18.576;2023-08-24T07:41:02;21.71;64.28
70928;SHT31;58587;53.034;18.576;2023-08-24T07:43:28;21.81;63.28
70928;SHT31;58587;53.034;18.576;2023-08-24T07:45:54;21.87;63.07
70928;SHT31;58587;53.034;18.576;2023-08-24T07:48:20;21.98;63.06
70928;SHT31;58587;53.034;18.576;2023-08-24T07:50:45;22.05;62.23
70928;SHT31;58587;53.034;18.576;2023-08-24T07:53:10;22.08;61.91
70928;SHT31;58587;53.034;18.576;2023-08-24T07:55:36;22.20;62.08
70928;SHT31;58587;53.034;18.576;2023-08-24T07:58:01;22.24;61.56
70928;SHT31;58587;53.034;18.576;2023-08-24T08:00:26;22.31;61.53
70928;SHT31;58587;53.034;18.576;2023-08-24T08:02:52;22.40;61.23
70928;SHT31;58587;53.034;18.576;2023-08-24T08:05:18;22.49;61.03
70928;SHT31;58587;53.034;18.576;2023-08-24T08:07:43;22.54;59.45
70928;SHT31;58587;53.034;18.576;2023-08-24T08:10:09;22.64;60.63
70928;SHT31;58587;53.034;18.576;2023-08-24T08:12:34;22.75;60.73
70928;SHT31;58587;53.034;18.576;2023-08-24T08:15:00;22.81;59.81
70928;SHT31;58587;53.034;18.576;2023-08-24T08:17:26;22.88;59.51
70928;SHT31;58587;53.034;18.576;2023-08-24T08:19:56;22.88;59.00
70928;SHT31;58587;53.034;18.576;2023-08-24T08:22:22;23.05;59.24
70928;SHT31;58587;53.034;18.576;2023-08-24T08:24:47;23.12;58.77
70928;SHT31;58587;53.034;18.576;2023-08-24T08:27:13;23.27;59.20
70928;SHT31;58587;53.034;18.576;2023-08-24T08:29:38;23.29;57.89
70928;SHT31;58587;53.034;18.576;2023-08-24T08:32:04;23.43;58.60
70928;SHT31;58587;53.034;18.576;2023-08-24T08:34:31;23.45;56.15
70928;SHT31;58587;53.034;18.576;2023-08-24T08:36:56;23.56;57.47
70928;SHT31;58587;53.034;18.576;2023-08-24T08:39:22;23.66;57.64
70928;SHT31;58587;53.034;18.576;2023-08-24T08:41:48;23.74;57.56
70928;SHT31;58587;53.034;18.576;2023-08-24T08:44:15;23.77;56.75
70928;SHT31;58587;53.034;18.576;2023-08-24T08:46:42;23.94;56.91
70928;SHT31;58587;53.034;18.576;2023-08-24T08:49:08;24.05;56.61
70928;SHT31;58587;53.034;18.576;2023-08-24T08:51:37;24.12;55.94
70928;SHT31;58587;53.034;18.576;2023-08-24T08:54:04;24.25;55.62
70928;SHT31;58587;53.034;18.576;2023-08-24T08:56:31;24.25;53.53
70928;SHT31;58587;53.034;18.576;2023-08-24T08:58:58;24.36;53.42
70928;SHT31;58587;53.034;18.576;2023-08-24T09:01:24;24.35;53.37
70928;SHT31;58587;53.034;18.576;2023-08-24T09:03:51;24.41;53.66
70928;SHT31;58587;53.034;18.576;2023-08-24T09:06:17;24.59;54.81
70928;SHT31;58587;53.034;18.576;2023-08-24T09:08:43;24.59;52.98
70928;SHT31;58587;53.034;18.576;2023-08-24T09:11:09;24.71;53.58
70928;SHT31;58587;53.034;18.576;2023-08-24T09:13:35;24.75;53.36
70928;SHT31;58587;53.034;18.576;2023-08-24T09:16:07;24.80;52.71
70928;SHT31;58587;53.034;18.576;2023-08-24T09:18:35;24.87;52.25
70928;SHT31;58587;53.034;18.576;2023-08-24T09:21:07;24.95;52.85
70928;SHT31;58587;53.034;18.576;2023-08-24T09:23:33;24.93;51.86
70928;SHT31;58587;53.034;18.576;2023-08-24T09:25:58;24.99;52.27
70928;SHT31;58587;53.034;18.576;2023-08-24T09:28:23;25.03;52.25
70928;SHT31;58587;53.034;18.576;2023-08-24T09:30:53;25.20;53.30
70928;SHT31;58587;53.034;18.576;2023-08-24T09:33:19;25.36;53.88
70928;SHT31;58587;53.034;18.576;2023-08-24T09:35:52;25.36;52.36
70928;SHT31;58587;53.034;18.576;2023-08-24T09:38:18;25.41;51.56
70928;SHT31;58587;53.034;18.576;2023-08-24T09:40:45;25.38;52.17
70928;SHT31;58587;53.034;18.576;2023-08-24T09:43:14;25.36;51.20
70928;SHT31;58587;53.034;18.576;2023-08-24T09:45:59;25.27;50.76
70928;SHT31;58587;53.034;18.576;2023-08-24T09:48:25;25.30;50.81
70928;SHT31;58587;53.034;18.576;2023-08-24T09:50:51;25.33;50.98
70928;SHT31;58587;53.034;18.576;2023-08-24T09:53:18;25.31;51.27
70928;SHT31;58587;53.034;18.576;2023-08-24T09:55:54;25.28;50.89
70928;SHT31;58587;53.034;18.576;2023-08-24T09:58:21;25.37;50.84
70928;SHT31;58587;53.034;18.576;2023-08-24T10:00:49;25.43;51.21
70928;SHT31;58587;53.034;18.576;2023-08-24T10:03:16;25.51;51.58
70928;SHT31;58587;53.034;18.576;2023-08-24T10:05:46;25.57;52.73
70928;SHT31;58587;53.034;18.576;2023-08-24T10:08:14;25.68;52.56
70928;SHT31;58587;53.034;18.576;2023-08-24T10:10:41;25.74;51.12
70928;SHT31;58587;53.034;18.576;2023-08-24T10:13:27;25.87;51.02
70928;SHT31;58587;53.034;18.576;2023-08-24T10:15:55;25.95;50.35
70928;SHT31;58587;53.034;18.576;2023-08-24T10:18:22;26.01;50.90
70928;SHT31;58587;53.034;18.576;2023-08-24T10:20:49;25.89;49.48
70928;SHT31;58587;53.034;18.576;2023-08-24T10:23:15;25.92;49.20
70928;SHT31;58587;53.034;18.576;2023-08-24T10:25:42;25.97;49.66
70928;SHT31;58587;53.034;18.576;2023-08-24T10:28:10;25.91;48.81
70928;SHT31;58587;53.034;18.576;2023-08-24T10:30:36;26.04;49.62
70928;SHT31;58587;53.034;18.576;2023-08-24T10:33:03;26.09;48.73
70928;SHT31;58587;53.034;18.576;2023-08-24T10:35:29;26.14;49.06
70928;SHT31;58587;53.034;18.576;2023-08-24T10:37:58;26.19;47.69
70928;SHT31;58587;53.034;18.576;2023-08-24T10:40:33;26.32;48.83
70928;SHT31;58587;53.034;18.576;2023-08-24T10:43:02;26.28;47.97
70928;SHT31;58587;53.034;18.576;2023-08-24T10:45:55;26.48;48.51
70928;SHT31;58587;53.034;18.576;2023-08-24T10:48:25;26.60;48.30
70928;SHT31;58587;53.034;18.576;2023-08-24T10:53:39;26.94;47.62
70928;SHT31;58587;53.034;18.576;2023-08-24T10:56:12;27.08;46.88
70928;SHT31;58587;53.034;18.576;2023-08-24T10:58:38;26.93;45.02
70928;SHT31;58587;53.034;18.576;2023-08-24T11:01:03;27.11;46.28
70928;SHT31;58587;53.034;18.576;2023-08-24T11:03:32;27.14;44.67
70928;SHT31;58587;53.034;18.576;2023-08-24T11:05:58;27.23;44.86
70928;SHT31;58587;53.034;18.576;2023-08-24T11:08:44;27.27;43.54
70928;SHT31;58587;53.034;18.576;2023-08-24T11:11:20;27.08;43.60
70928;SHT31;58587;53.034;18.576;2023-08-24T11:14:17;27.27;43.89
70928;SHT31;58587;53.034;18.576;2023-08-24T11:16:52;27.61;44.92
70928;SHT31;58587;53.034;18.576;2023-08-24T11:19:17;27.85;44.09
70928;SHT31;58587;53.034;18.576;2023-08-24T11:21:44;27.98;43.20
70928;SHT31;58587;53.034;18.576;2023-08-24T11:24:12;28.10;42.50
70928;SHT31;58587;53.034;18.576;2023-08-24T11:26:45;28.33;42.73
70928;SHT31;58587;53.034;18.576;2023-08-24T11:29:11;28.50;42.23
70928;SHT31;58587;53.034;18.576;2023-08-24T11:31:37;28.76;41.79
70928;SHT31;58587;53.034;18.576;2023-08-24T11:34:03;29.08;43.07
70928;SHT31;58587;53.034;18.576;2023-08-24T11:36:32;29.21;41.04
70928;SHT31;58587;53.034;18.576;2023-08-24T11:39:06;29.50;39.52
70928;SHT31;58587;53.034;18.576;2023-08-24T11:41:31;29.52;39.75
70928;SHT31;58587;53.034;18.576;2023-08-24T11:44:00;29.61;39.22
70928;SHT31;58587;53.034;18.576;2023-08-24T11:46:28;29.62;39.36
70928;SHT31;58587;53.034;18.576;2023-08-24T11:48:53;29.83;38.78
70928;SHT31;58587;53.034;18.576;2023-08-24T11:51:19;30.01;39.32
70928;SHT31;58587;53.034;18.576;2023-08-24T11:53:45;29.98;38.37
70928;SHT31;58587;53.034;18.576;2023-08-24T11:56:12;30.02;38.38
70928;SHT31;58587;53.034;18.576;2023-08-24T11:58:42;30.44;39.06
70928;SHT31;58587;53.034;18.576;2023-08-24T12:01:08;30.52;37.74
70928;SHT31;58587;53.034;18.576;2023-08-24T12:03:35;30.71;38.01
70928;SHT31;58587;53.034;18.576;2023-08-24T12:06:01;30.99;37.55
70928;SHT31;58587;53.034;18.576;2023-08-24T12:08:28;31.18;36.81
70928;SHT31;58587;53.034;18.576;2023-08-24T12:10:54;31.35;37.13
70928;SHT31;58587;53.034;18.576;2023-08-24T12:13:19;31.52;36.82
70928;SHT31;58587;53.034;18.576;2023-08-24T12:15:44;31.07;35.67
70928;SHT31;58587;53.034;18.576;2023-08-24T12:18:13;31.25;35.60
70928;SHT31;58587;53.034;18.576;2023-08-24T12:20:40;31.42;36.14
70928;SHT31;58587;53.034;18.576;2023-08-24T12:23:06;31.68;35.86
70928;SHT31;58587;53.034;18.576;2023-08-24T12:25:42;31.78;35.98
70928;SHT31;58587;53.034;18.576;2023-08-24T12:28:12;32.13;35.67
70928;SHT31;58587;53.034;18.576;2023-08-24T12:31:04;32.50;34.67
70928;SHT31;58587;53.034;18.576;2023-08-24T12:33:31;32.84;34.30
70928;SHT31;58587;53.034;18.576;2023-08-24T12:35:57;33.25;34.16
70928;SHT31;58587;53.034;18.576;2023-08-24T12:38:25;33.45;33.22
70928;SHT31;58587;53.034;18.576;2023-08-24T12:40:50;33.55;32.23
70928;SHT31;58587;53.034;18.576;2023-08-24T12:43:16;34.41;33.56
70928;SHT31;58587;53.034;18.576;2023-08-24T12:45:41;34.68;32.25
70928;SHT31;58587;53.034;18.576;2023-08-24T12:48:07;33.83;32.67
70928;SHT31;58587;53.034;18.576;2023-08-24T12:50:37;34.43;32.23
70928;SHT31;58587;53.034;18.576;2023-08-24T12:53:03;35.22;31.96
70928;SHT31;58587;53.034;18.576;2023-08-24T12:55:31;35.15;31.05
70928;SHT31;58587;53.034;18.576;2023-08-24T12:57:56;34.36;31.70
70928;SHT31;58587;53.034;18.576;2023-08-24T13:00:22;33.79;32.22
70928;SHT31;58587;53.034;18.576;2023-08-24T13:02:50;33.59;33.27
70928;SHT31;58587;53.034;18.576;2023-08-24T13:05:16;34.03;32.57
70928;SHT31;58587;53.034;18.576;2023-08-24T13:07:42;34.74;32.07
70928;SHT31;58587;53.034;18.576;2023-08-24T13:10:07;35.28;31.45
70928;SHT31;58587;53.034;18.576;2023-08-24T13:12:34;35.82;30.67
70928;SHT31;58587;53.034;18.576;2023-08-24T13:15:00;35.28;30.90
70928;SHT31;58587;53.034;18.576;2023-08-24T13:17:26;35.37;30.25
70928;SHT31;58587;53.034;18.576;2023-08-24T13:19:52;35.92;29.83
70928;SHT31;58587;53.034;18.576;2023-08-24T13:22:17;36.53;29.47
70928;SHT31;58587;53.034;18.576;2023-08-24T13:24:42;36.97;28.62
70928;SHT31;58587;53.034;18.576;2023-08-24T13:27:09;37.49;28.43
70928;SHT31;58587;53.034;18.576;2023-08-24T13:29:36;36.62;28.07
70928;SHT31;58587;53.034;18.576;2023-08-24T13:32:01;36.00;28.86
70928;SHT31;58587;53.034;18.576;2023-08-24T13:34:26;35.27;29.44
70928;SHT31;58587;53.034;18.576;2023-08-24T13:36:52;33.96;31.44
70928;SHT31;58587;53.034;18.576;2023-08-24T13:39:17;33.80;32.12
70928;SHT31;58587;53.034;18.576;2023-08-24T13:41:42;33.07;34.24
70928;SHT31;58587;53.034;18.576;2023-08-24T13:44:08;32.67;33.88
70928;SHT31;58587;53.034;18.576;2023-08-24T13:46:34;31.97;34.89
70928;SHT31;58587;53.034;18.576;2023-08-24T13:48:59;32.16;35.36
70928;SHT31;58587;53.034;18.576;2023-08-24T13:51:25;32.02;35.72
70928;SHT31;58587;53.034;18.576;2023-08-24T13:53:50;31.78;35.00
70928;SHT31;58587;53.034;18.576;2023-08-24T13:56:15;31.15;37.05
70928;SHT31;58587;53.034;18.576;2023-08-24T13:58:40;31.10;36.89
70928;SHT31;58587;53.034;18.576;2023-08-24T14:01:06;31.02;37.52
70928;SHT31;58587;53.034;18.576;2023-08-24T14:03:31;30.97;37.36
70928;SHT31;58587;53.034;18.576;2023-08-24T14:05:57;32.19;35.71
70928;SHT31;58587;53.034;18.576;2023-08-24T14:08:23;32.12;36.44
70928;SHT31;58587;53.034;18.576;2023-08-24T14:10:49;32.06;35.98
70928;SHT31;58587;53.034;18.576;2023-08-24T14:13:15;32.05;35.54
70928;SHT31;58587;53.034;18.576;2023-08-24T14:15:40;31.37;35.93
70928;SHT31;58587;53.034;18.576;2023-08-24T14:18:05;30.88;36.99
70928;SHT31;58587;53.034;18.576;2023-08-24T14:20:31;30.63;37.52
70928;SHT31;58587;53.034;18.576;2023-08-24T14:22:56;30.40;37.80
70928;SHT31;58587;53.034;18.576;2023-08-24T14:25:22;30.22;39.08
70928;SHT31;58587;53.034;18.576;2023-08-24T14:27:47;30.03;40.30
70928;SHT31;58587;53.034;18.576;2023-08-24T14:30:13;29.83;40.24
70928;SHT31;58587;53.034;18.576;2023-08-24T14:32:39;29.69;40.69
70928;SHT31;58587;53.034;18.576;2023-08-24T14:35:04;29.58;40.84
70928;SHT31;58587;53.034;18.576;2023-08-24T14:37:30;29.48;40.91
70928;SHT31;58587;53.034;18.576;2023-08-24T14:39:55;29.38;41.65
70928;SHT31;58587;53.034;18.576;2023-08-24T14:42:20;29.47;41.11
70928;SHT31;58587;53.034;18.576;2023-08-24T14:44:46;29.55;41.33
70928;SHT31;58587;53.034;18.576;2023-08-24T14:47:11;29.68;40.96
70928;SHT31;58587;53.034;18.576;2023-08-24T14:49:36;30.47;39.75
70928;SHT31;58587;53.034;18.576;2023-08-24T14:52:02;31.52;38.34
70928;SHT31;58587;53.034;18.576;2023-08-24T14:54:27;31.69;38.09
70928;SHT31;58587;53.034;18.576;2023-08-24T14:56:52;32.26;35.92
70928;SHT31;58587;53.034;18.576;2023-08-24T14:59:18;32.34;34.62
70928;SHT31;58587;53.034;18.576;2023-08-24T15:01:43;32.70;34.56
70928;SHT31;58587;53.034;18.576;2023-08-24T15:04:09;33.11;35.30
70928;SHT31;58587;53.034;18.576;2023-08-24T15:06:34;33.21;34.45
70928;SHT31;58587;53.034;18.576;2023-08-24T15:09:00;32.80;33.98
70928;SHT31;58587;53.034;18.576;2023-08-24T15:11:25;32.59;34.86
70928;SHT31;58587;53.034;18.576;2023-08-24T15:13:50;32.24;34.24
70928;SHT31;58587;53.034;18.576;2023-08-24T15:16:16;31.86;35.42